Time;durP1;ratioP1;P1;durP2;ratioP2;P2;SDS_P1;SDS_P2;PMS_P1;PMS_P2;Temp;Humidity;BMP_temperature;BMP_pressure;BME280_temperature;BME280_humidity;BME280_pressure;Samples;Min_cycle;Max_cycle;Signal;HPM_P1;HPM_P2
2023/05/18 00:01:52;;;;;;;6.35;4.78;;;7.60;74.60;;;;;;5028982;28;20041;-62
2023/05/18 00:04:22;;;;;;;8.90;5.03;;;7.60;74.80;;;;;;5031554;28;20043;-62
2023/05/18 00:06:57;;;;;;;8.63;5.18;;;7.50;74.80;;;;;;5028161;28;20048;-60
2023/05/18 00:09:26;;;;;;;8.82;4.93;;;7.50;74.80;;;;;;5029100;28;20627;-62
2023/05/18 00:11:52;;;;;;;7.22;5.07;;;7.50;74.90;;;;;;5031431;28;20393;-62
2023/05/18 00:14:18;;;;;;;7.65;5.10;;;7.50;74.90;;;;;;5031410;28;20025;-62
2023/05/18 00:16:44;;;;;;;9.52;5.10;;;7.40;74.80;;;;;;5027787;28;20058;-62
2023/05/18 00:19:13;;;;;;;8.90;5.15;;;7.40;74.90;;;;;;5030227;28;20504;-62
2023/05/18 00:21:40;;;;;;;9.23;5.25;;;7.40;74.90;;;;;;5029004;28;20488;-62
2023/05/18 00:24:06;;;;;;;9.80;5.32;;;7.40;75.10;;;;;;5029670;28;20059;-62
2023/05/18 00:26:32;;;;;;;8.50;5.15;;;7.40;75.10;;;;;;5028716;28;20057;-60
2023/05/18 00:28:57;;;;;;;9.05;5.60;;;7.40;75.30;;;;;;5031214;28;20167;-61
2023/05/18 00:31:23;;;;;;;9.68;6.00;;;7.40;75.30;;;;;;5031270;28;20041;-62
2023/05/18 00:33:49;;;;;;;12.85;5.78;;;7.30;75.30;;;;;;5028786;28;20033;-62
2023/05/18 00:36:14;;;;;;;10.00;5.65;;;7.40;75.40;;;;;;5029660;28;20034;-62
2023/05/18 00:38:40;;;;;;;10.85;6.05;;;7.40;75.40;;;;;;5030232;28;20602;-62
2023/05/18 00:41:05;;;;;;;9.38;6.28;;;7.40;75.50;;;;;;5030946;28;20041;-62
2023/05/18 00:43:31;;;;;;;10.43;5.97;;;7.40;75.60;;;;;;5033439;28;20034;-62
2023/05/18 00:45:56;;;;;;;11.80;6.55;;;7.50;76.50;;;;;;5034791;28;21260;-62
2023/05/18 00:48:22;;;;;;;9.63;6.13;;;7.50;75.70;;;;;;5030851;28;20128;-62
2023/05/18 00:50:48;;;;;;;9.90;6.38;;;7.50;75.80;;;;;;5033209;28;20345;-61
2023/05/18 00:53:13;;;;;;;9.23;6.22;;;7.50;75.70;;;;;;5030028;28;20041;-62
2023/05/18 00:55:39;;;;;;;8.70;5.60;;;7.50;75.60;;;;;;5033108;28;20405;-62
2023/05/18 00:58:04;;;;;;;10.65;6.03;;;7.60;75.80;;;;;;5032623;28;20482;-62
2023/05/18 01:00:32;;;;;;;8.38;5.93;;;7.60;75.70;;;;;;5030654;28;20029;-61
2023/05/18 01:02:58;;;;;;;9.48;5.95;;;7.70;75.60;;;;;;5034913;28;20049;-62
2023/05/18 01:05:24;;;;;;;10.35;6.25;;;7.70;75.60;;;;;;5030348;28;20041;-62
2023/05/18 01:07:49;;;;;;;9.15;6.03;;;7.70;75.40;;;;;;5031898;28;20064;-61
2023/05/18 01:10:17;;;;;;;9.07;5.45;;;7.70;75.30;;;;;;5030447;28;20052;-62
2023/05/18 01:12:57;;;;;;;10.25;5.88;;;7.70;75.40;;;;;;5029831;28;20044;-62
2023/05/18 01:15:32;;;;;;;10.15;6.13;;;7.70;75.40;;;;;;5035044;28;20520;-61
2023/05/18 01:18:20;;;;;;;12.27;6.03;;;7.70;75.50;;;;;;5036777;28;20037;-62
2023/05/18 01:21:00;;;;;;;11.07;6.05;;;7.80;76.00;;;;;;5035654;28;20049;-61
2023/05/18 01:23:34;;;;;;;8.63;5.80;;;7.80;75.70;;;;;;5033126;28;20038;-62
2023/05/18 01:26:15;;;;;;;8.05;5.68;;;7.80;75.50;;;;;;5032395;28;20386;-62
2023/05/18 01:28:45;;;;;;;12.20;6.25;;;7.80;75.40;;;;;;5031532;28;20272;-62
2023/05/18 01:31:13;;;;;;;10.60;6.07;;;7.80;75.10;;;;;;5030349;28;20038;-62
2023/05/18 01:33:38;;;;;;;11.20;5.85;;;7.80;75.00;;;;;;5034288;28;20044;-62
2023/05/18 01:36:04;;;;;;;11.38;5.80;;;7.80;75.00;;;;;;5031883;28;20456;-61
2023/05/18 01:38:31;;;;;;;12.23;6.07;;;7.70;74.90;;;;;;5037068;28;20404;-62
2023/05/18 01:41:15;;;;;;;10.23;6.25;;;7.70;74.80;;;;;;5033784;28;20464;-62
2023/05/18 01:44:01;;;;;;;8.93;6.00;;;7.70;74.90;;;;;;5031834;28;20038;-62
2023/05/18 01:46:52;;;;;;;12.13;6.45;;;7.80;75.60;;;;;;5035312;28;20041;-62
2023/05/18 01:49:37;;;;;;;16.90;6.88;;;7.80;75.40;;;;;;5021807;28;20519;-62
2023/05/18 01:52:07;;;;;;;11.95;7.00;;;7.70;74.90;;;;;;5037281;28;20037;-62
2023/05/18 01:54:37;;;;;;;10.98;6.50;;;7.70;75.10;;;;;;5019928;28;20045;-62
2023/05/18 01:57:05;;;;;;;12.07;6.82;;;7.70;75.10;;;;;;5013745;28;20034;-62
2023/05/18 01:59:31;;;;;;;11.32;6.82;;;7.60;75.20;;;;;;5015257;28;20134;-61
2023/05/18 02:01:59;;;;;;;16.02;6.65;;;7.60;75.30;;;;;;5012807;28;20148;-62
2023/05/18 02:04:25;;;;;;;8.90;6.10;;;7.60;75.30;;;;;;5013726;28;20033;-62
2023/05/18 02:06:52;;;;;;;12.57;7.20;;;7.60;75.30;;;;;;5012742;28;20041;-62
2023/05/18 02:09:19;;;;;;;9.40;5.93;;;7.60;75.40;;;;;;5011210;28;20037;-62
2023/05/18 02:11:45;;;;;;;9.88;6.47;;;7.60;75.20;;;;;;5015620;28;20034;-62
2023/05/18 02:14:11;;;;;;;11.13;6.25;;;7.60;75.10;;;;;;5013197;28;20498;-62
2023/05/18 02:16:37;;;;;;;9.70;6.85;;;7.60;75.20;;;;;;5012213;28;20138;-62
2023/05/18 02:19:02;;;;;;;11.48;6.28;;;7.60;75.30;;;;;;5011659;28;20040;-62
2023/05/18 02:21:28;;;;;;;8.55;6.57;;;7.50;75.30;;;;;;5010483;28;20033;-61
2023/05/18 02:23:54;;;;;;;13.00;7.03;;;7.50;75.30;;;;;;5013328;28;20030;-62
2023/05/18 02:26:20;;;;;;;11.82;6.93;;;7.50;75.40;;;;;;5013308;28;20074;-61
2023/05/18 02:28:45;;;;;;;10.75;6.38;;;7.50;75.50;;;;;;5012644;28;20056;-62
2023/05/18 02:31:11;;;;;;;11.80;6.55;;;7.50;75.60;;;;;;5014757;28;20539;-61
2023/05/18 02:33:40;;;;;;;10.50;6.05;;;7.50;75.80;;;;;;5016170;28;20508;-62
2023/05/18 02:36:11;;;;;;;12.43;6.63;;;7.50;75.80;;;;;;5011284;28;20042;-62
2023/05/18 02:38:39;;;;;;;12.07;5.82;;;7.50;76.10;;;;;;5016316;28;20037;-61
2023/05/18 02:41:05;;;;;;;12.60;6.00;;;7.50;76.10;;;;;;5014283;28;20033;-62
2023/05/18 02:43:31;;;;;;;10.85;6.00;;;7.40;76.10;;;;;;5010793;28;20045;-60
2023/05/18 02:45:57;;;;;;;10.57;5.95;;;7.50;76.30;;;;;;5015897;28;20038;-62
2023/05/18 02:48:22;;;;;;;12.90;6.60;;;7.40;76.30;;;;;;5017132;28;20111;-62
2023/05/18 02:50:49;;;;;;;10.23;6.15;;;7.40;76.30;;;;;;5013182;28;20627;-62
2023/05/18 02:53:14;;;;;;;9.02;5.63;;;7.50;76.30;;;;;;5010609;28;20308;-62
2023/05/18 02:55:40;;;;;;;10.77;5.70;;;7.50;76.30;;;;;;5014084;28;20041;-61
2023/05/18 02:58:06;;;;;;;12.73;5.97;;;7.50;76.30;;;;;;5014745;28;20041;-62
2023/05/18 03:00:32;;;;;;;13.43;5.88;;;7.50;76.40;;;;;;5009339;28;20087;-62
2023/05/18 03:02:59;;;;;;;8.98;6.32;;;7.50;76.30;;;;;;5012983;28;20156;-62
2023/05/18 03:05:25;;;;;;;9.50;6.22;;;7.50;76.30;;;;;;5013219;28;20103;-62
2023/05/18 03:07:51;;;;;;;9.32;5.68;;;7.50;76.50;;;;;;5011941;28;20521;-61
2023/05/18 03:10:18;;;;;;;11.15;5.63;;;7.50;76.40;;;;;;5017358;28;20034;-62
2023/05/18 03:12:44;;;;;;;9.13;5.55;;;7.50;76.60;;;;;;5010345;28;20083;-61
2023/05/18 03:15:10;;;;;;;9.10;5.43;;;7.50;76.50;;;;;;5012203;28;20037;-62
2023/05/18 03:17:36;;;;;;;9.43;5.50;;;7.50;76.60;;;;;;5013789;28;20042;-62
2023/05/18 03:20:03;;;;;;;11.48;5.40;;;7.50;76.60;;;;;;5017117;28;20037;-62
2023/05/18 03:22:29;;;;;;;8.30;5.43;;;7.50;76.70;;;;;;5011713;28;20033;-62
2023/05/18 03:24:55;;;;;;;9.70;5.40;;;7.50;77.00;;;;;;5016169;28;20464;-62
2023/05/18 03:27:24;;;;;;;8.60;5.18;;;7.50;76.60;;;;;;5015939;28;20037;-62
2023/05/18 03:29:51;;;;;;;8.75;4.80;;;7.50;76.70;;;;;;5012948;28;20453;-62
2023/05/18 03:32:18;;;;;;;11.07;5.72;;;7.50;76.70;;;;;;5011566;28;20049;-62
2023/05/18 03:34:46;;;;;;;11.85;5.47;;;7.50;76.80;;;;;;5010945;28;20041;-62
2023/05/18 03:37:12;;;;;;;10.05;5.50;;;7.40;76.80;;;;;;5011237;28;20386;-62
2023/05/18 03:39:38;;;;;;;12.27;5.50;;;7.50;77.70;;;;;;5012302;28;20076;-62
2023/05/18 03:42:03;;;;;;;11.02;5.72;;;7.40;76.90;;;;;;5011733;28;20645;-62
2023/05/18 03:44:29;;;;;;;10.52;5.45;;;7.40;76.80;;;;;;5026054;28;20041;-62
2023/05/18 03:46:55;;;;;;;11.93;5.03;;;7.40;76.80;;;;;;5013778;28;20034;-62
2023/05/18 03:49:20;;;;;;;9.70;5.05;;;7.40;76.90;;;;;;5009752;28;20574;-61
2023/05/18 03:51:46;;;;;;;9.63;4.95;;;7.40;76.90;;;;;;5009846;28;20039;-62
2023/05/18 03:54:12;;;;;;;9.77;5.53;;;7.50;77.10;;;;;;5009779;28;20091;-63
2023/05/18 03:56:37;;;;;;;10.23;5.13;;;7.40;77.10;;;;;;5011248;28;20032;-62
2023/05/18 03:59:03;;;;;;;9.90;5.05;;;7.40;77.30;;;;;;5009640;28;20030;-62
2023/05/18 04:01:31;;;;;;;9.45;4.65;;;7.40;77.10;;;;;;5005599;28;20445;-61
2023/05/18 04:03:57;;;;;;;10.43;4.65;;;7.40;77.20;;;;;;5019255;28;20435;-60
2023/05/18 04:06:24;;;;;;;9.30;4.40;;;7.40;77.20;;;;;;5033232;28;20041;-61
2023/05/18 04:08:51;;;;;;;6.75;4.55;;;7.40;77.20;;;;;;5028984;28;20034;-60
2023/05/18 04:11:16;;;;;;;7.30;4.20;;;7.40;77.20;;;;;;5031960;28;20456;-61
2023/05/18 04:13:42;;;;;;;9.80;4.22;;;7.40;77.20;;;;;;5028955;28;20033;-62
2023/05/18 04:16:12;;;;;;;6.80;4.18;;;7.40;77.30;;;;;;5032820;28;20025;-61
2023/05/18 04:18:38;;;;;;;7.22;4.10;;;7.40;77.20;;;;;;5034075;28;20038;-61
2023/05/18 04:21:05;;;;;;;7.35;3.83;;;7.40;77.30;;;;;;5030731;28;20122;-62
2023/05/18 04:23:32;;;;;;;8.73;4.45;;;7.40;77.30;;;;;;5027963;28;20539;-62
2023/05/18 04:25:58;;;;;;;9.00;5.32;;;7.40;77.50;;;;;;5029961;28;20052;-61
2023/05/18 04:28:24;;;;;;;9.45;5.38;;;7.50;77.50;;;;;;5029479;28;20037;-62
2023/05/18 04:30:50;;;;;;;10.40;5.18;;;7.50;77.50;;;;;;5024992;28;20085;-62
2023/05/18 04:33:16;;;;;;;9.88;4.85;;;7.50;77.60;;;;;;5029040;28;20033;-62
2023/05/18 04:35:42;;;;;;;11.02;4.75;;;7.50;77.50;;;;;;5032275;28;20080;-61
2023/05/18 04:38:07;;;;;;;10.20;5.00;;;7.50;77.50;;;;;;5031731;28;20064;-62
2023/05/18 04:40:36;;;;;;;7.93;4.15;;;7.50;77.50;;;;;;5029776;28;20111;-62
2023/05/18 04:43:04;;;;;;;6.75;4.13;;;7.50;77.60;;;;;;5028865;28;20193;-61
2023/05/18 04:45:30;;;;;;;13.93;4.45;;;7.50;77.60;;;;;;5027832;28;20037;-61
2023/05/18 04:47:57;;;;;;;7.60;4.57;;;7.50;77.70;;;;;;5029635;28;20565;-62
2023/05/18 04:50:23;;;;;;;7.30;4.72;;;7.60;77.70;;;;;;5030358;28;20040;-62
2023/05/18 04:52:49;;;;;;;9.30;5.57;;;7.60;77.90;;;;;;5035557;28;20731;-62
2023/05/18 04:55:21;;;;;;;9.50;5.20;;;7.60;78.00;;;;;;5039341;28;20037;-62
2023/05/18 04:57:47;;;;;;;10.32;4.80;;;7.60;78.00;;;;;;5040068;28;20061;-62
2023/05/18 05:00:14;;;;;;;6.88;4.28;;;7.70;78.20;;;;;;5040207;28;20026;-62
2023/05/18 05:02:40;;;;;;;8.23;4.30;;;7.70;78.40;;;;;;5038594;28;20037;-61
2023/05/18 05:05:07;;;;;;;9.30;4.45;;;7.70;78.50;;;;;;5034211;28;20038;-61
2023/05/18 05:07:32;;;;;;;13.13;5.18;;;7.80;78.70;;;;;;5027056;28;20359;-62
2023/05/18 05:09:58;;;;;;;9.60;5.22;;;7.80;79.10;;;;;;5020514;28;20042;-61
2023/05/18 05:12:23;;;;;;;8.27;5.03;;;7.80;79.20;;;;;;5017150;28;20069;-62
2023/05/18 05:14:49;;;;;;;10.93;4.93;;;7.90;79.50;;;;;;5016845;28;20045;-61
2023/05/18 05:17:15;;;;;;;12.35;4.72;;;7.90;79.80;;;;;;5020224;28;20453;-61
2023/05/18 05:19:41;;;;;;;8.85;4.97;;;7.90;79.60;;;;;;5022349;28;20083;-62
2023/05/18 05:22:06;;;;;;;8.93;4.78;;;8.00;79.80;;;;;;5020891;28;20144;-61
2023/05/18 05:24:32;;;;;;;7.72;4.47;;;8.00;79.80;;;;;;5013632;28;20939;-61
2023/05/18 05:26:58;;;;;;;8.57;4.90;;;8.10;80.00;;;;;;5009703;28;20209;-61
2023/05/18 05:29:25;;;;;;;8.95;4.45;;;8.20;80.20;;;;;;5012919;28;21949;-61
2023/05/18 05:31:50;;;;;;;8.93;4.18;;;8.20;79.80;;;;;;5015597;28;20168;-62
2023/05/18 05:34:16;;;;;;;11.20;4.60;;;8.30;79.90;;;;;;5022769;28;20504;-60
2023/05/18 05:36:42;;;;;;;9.02;4.65;;;8.40;79.80;;;;;;5017367;28;20496;-61
2023/05/18 05:39:07;;;;;;;8.05;4.72;;;8.50;79.70;;;;;;5024428;28;22168;-61
2023/05/18 05:41:33;;;;;;;7.05;4.47;;;8.50;79.40;;;;;;5013958;28;20033;-61
2023/05/18 05:43:59;;;;;;;10.05;4.35;;;8.60;79.40;;;;;;5020415;28;20037;-61
2023/05/18 05:46:24;;;;;;;9.20;4.30;;;8.60;79.20;;;;;;5014984;28;21250;-61
2023/05/18 05:48:50;;;;;;;7.35;4.35;;;8.60;79.30;;;;;;5018004;28;20034;-61
2023/05/18 05:51:16;;;;;;;7.57;4.30;;;8.70;79.30;;;;;;5020054;28;20167;-61
2023/05/18 05:53:42;;;;;;;7.15;4.70;;;8.70;79.30;;;;;;5017814;28;20044;-61
2023/05/18 05:56:08;;;;;;;7.60;4.32;;;8.80;79.40;;;;;;5025210;28;20127;-62
2023/05/18 05:58:34;;;;;;;9.25;4.30;;;8.80;79.40;;;;;;5030747;28;20210;-62
2023/05/18 06:01:00;;;;;;;10.13;4.90;;;8.90;80.30;;;;;;5023538;28;20114;-61
2023/05/18 06:03:25;;;;;;;9.13;4.85;;;9.00;79.60;;;;;;5013483;28;20190;-62
2023/05/18 06:05:51;;;;;;;10.80;4.93;;;9.00;79.60;;;;;;5028998;28;20049;-61
2023/05/18 06:08:16;;;;;;;9.18;5.28;;;9.10;79.40;;;;;;5031980;28;20215;-61
2023/05/18 06:10:42;;;;;;;7.50;4.47;;;9.20;79.40;;;;;;5041478;28;20033;-61
2023/05/18 06:13:08;;;;;;;10.43;4.93;;;9.30;79.30;;;;;;5035614;28;20041;-62
2023/05/18 06:15:33;;;;;;;11.43;5.03;;;9.30;79.40;;;;;;5036234;28;20049;-61
2023/05/18 06:17:59;;;;;;;8.30;4.65;;;9.40;79.50;;;;;;5037201;28;20021;-61
2023/05/18 06:20:26;;;;;;;8.95;4.53;;;9.50;79.60;;;;;;5036942;28;20130;-61
2023/05/18 06:22:51;;;;;;;9.73;5.15;;;9.60;79.50;;;;;;5037707;28;20063;-60
2023/05/18 06:25:17;;;;;;;9.32;5.22;;;9.70;79.80;;;;;;5039220;28;20063;-60
2023/05/18 06:27:44;;;;;;;12.15;5.38;;;9.70;79.60;;;;;;5038459;28;20044;-61
2023/05/18 06:30:10;;;;;;;10.68;5.00;;;9.80;79.40;;;;;;5039892;28;20051;-62
2023/05/18 06:32:36;;;;;;;9.52;4.50;;;9.90;79.30;;;;;;5038813;28;20072;-60
2023/05/18 06:35:02;;;;;;;9.00;4.78;;;10.00;79.30;;;;;;5038586;28;20080;-61
2023/05/18 06:37:28;;;;;;;8.13;4.60;;;10.10;79.30;;;;;;5038672;28;20029;-62
2023/05/18 06:39:54;;;;;;;5.88;4.35;;;10.10;79.10;;;;;;5038534;28;20080;-61
2023/05/18 06:42:20;;;;;;;5.65;4.40;;;10.20;78.90;;;;;;5033604;28;20084;-62
2023/05/18 06:44:45;;;;;;;10.15;4.90;;;10.30;78.70;;;;;;5036974;28;20060;-62
2023/05/18 06:47:11;;;;;;;8.32;4.43;;;10.40;78.70;;;;;;5033525;28;20044;-61
2023/05/18 06:49:36;;;;;;;8.18;4.35;;;10.50;78.80;;;;;;5034073;28;20044;-61
2023/05/18 06:52:03;;;;;;;8.65;4.30;;;10.60;78.60;;;;;;5033892;28;20040;-62
2023/05/18 06:54:29;;;;;;;9.30;4.55;;;10.70;78.40;;;;;;5036635;28;20033;-62
2023/05/18 06:56:55;;;;;;;7.78;4.30;;;10.70;78.20;;;;;;5033871;28;20087;-61
2023/05/18 06:59:21;;;;;;;6.45;4.18;;;10.90;78.20;;;;;;5037205;28;20040;-62
2023/05/18 07:01:46;;;;;;;5.75;4.15;;;11.00;78.00;;;;;;5035600;28;20037;-60
2023/05/18 07:04:12;;;;;;;7.72;4.20;;;11.10;77.80;;;;;;5032693;28;20463;-62
2023/05/18 07:06:38;;;;;;;8.88;3.85;;;11.10;77.50;;;;;;5038438;28;20138;-60
2023/05/18 07:09:03;;;;;;;6.32;3.97;;;11.20;77.30;;;;;;5038639;28;20460;-60
2023/05/18 07:11:29;;;;;;;8.43;4.50;;;11.30;77.20;;;;;;5036591;28;20092;-61
2023/05/18 07:13:55;;;;;;;8.63;4.25;;;11.40;77.20;;;;;;5037261;28;20427;-62
2023/05/18 07:16:20;;;;;;;8.00;4.43;;;11.50;76.80;;;;;;5034700;28;20087;-61
2023/05/18 07:18:46;;;;;;;8.82;4.05;;;11.60;76.60;;;;;;5036855;28;20076;-62
2023/05/18 07:21:11;;;;;;;7.38;4.40;;;11.70;76.30;;;;;;5035938;28;20033;-61
2023/05/18 07:23:37;;;;;;;8.80;4.32;;;11.80;76.00;;;;;;5033454;28;20154;-61
2023/05/18 07:26:03;;;;;;;8.95;4.28;;;11.90;75.80;;;;;;5031318;28;20040;-61
2023/05/18 07:28:28;;;;;;;6.93;3.70;;;12.00;75.60;;;;;;5028326;28;20083;-62
2023/05/18 07:30:54;;;;;;;10.60;4.10;;;12.10;75.40;;;;;;5029351;28;20050;-60
2023/05/18 07:33:19;;;;;;;7.50;4.10;;;12.10;75.40;;;;;;5031208;28;21313;-62
2023/05/18 07:35:45;;;;;;;7.68;3.88;;;12.30;75.10;;;;;;5031260;28;20084;-61
2023/05/18 07:38:10;;;;;;;7.57;3.90;;;12.30;73.90;;;;;;5030780;28;20029;-61
2023/05/18 07:40:36;;;;;;;7.82;3.67;;;12.40;73.80;;;;;;5029830;28;20519;-61
2023/05/18 07:43:02;;;;;;;6.05;3.10;;;12.50;73.50;;;;;;5031718;28;20129;-60
2023/05/18 07:45:28;;;;;;;7.70;3.15;;;12.60;73.40;;;;;;5031812;28;20107;-61
2023/05/18 07:47:53;;;;;;;5.85;3.50;;;12.60;73.20;;;;;;5029559;28;20044;-62
2023/05/18 07:50:19;;;;;;;8.98;3.35;;;12.70;72.80;;;;;;5029877;28;20030;-63
2023/05/18 07:52:45;;;;;;;5.88;3.22;;;12.80;72.60;;;;;;5027345;28;20045;-62
2023/05/18 07:55:10;;;;;;;5.60;3.33;;;12.90;72.30;;;;;;5038287;28;20041;-62
2023/05/18 07:57:36;;;;;;;9.80;3.60;;;13.00;71.80;;;;;;5030489;28;20527;-62
2023/05/18 08:00:05;;;;;;;7.32;3.30;;;13.00;71.80;;;;;;5031824;28;20728;-61
2023/05/18 08:02:31;;;;;;;6.57;3.35;;;13.10;71.40;;;;;;5027259;28;20045;-61
2023/05/18 08:04:56;;;;;;;8.90;3.75;;;13.20;71.40;;;;;;5029616;28;20141;-61
2023/05/18 08:07:25;;;;;;;7.85;3.47;;;13.30;71.10;;;;;;5033435;28;20045;-62
2023/05/18 08:09:51;;;;;;;5.95;3.03;;;13.40;71.00;;;;;;5036272;28;20029;-61
2023/05/18 08:12:16;;;;;;;6.18;3.15;;;13.30;70.60;;;;;;5036778;28;20040;-62
2023/05/18 08:14:42;;;;;;;6.50;3.25;;;13.60;70.70;;;;;;5036271;28;20037;-62
2023/05/18 08:17:07;;;;;;;8.80;3.50;;;13.70;70.60;;;;;;5036387;28;20138;-62
2023/05/18 08:19:33;;;;;;;7.00;2.95;;;13.80;70.20;;;;;;5035849;28;20120;-61
2023/05/18 08:21:58;;;;;;;4.60;2.80;;;13.80;69.90;;;;;;5037811;28;20408;-61
2023/05/18 08:24:24;;;;;;;7.32;2.95;;;13.90;69.70;;;;;;5035215;28;20041;-62
2023/05/18 08:26:51;;;;;;;7.03;3.38;;;14.00;69.30;;;;;;5036501;28;20041;-61
2023/05/18 08:29:16;;;;;;;4.63;2.95;;;14.10;69.10;;;;;;5036905;28;20128;-62
2023/05/18 08:31:42;;;;;;;6.47;3.40;;;14.10;68.70;;;;;;5035384;28;20128;-62
2023/05/18 08:34:07;;;;;;;6.53;3.13;;;14.20;68.30;;;;;;5037812;28;20037;-61
2023/05/18 08:36:34;;;;;;;4.85;3.05;;;14.30;68.30;;;;;;5036663;28;20033;-62
2023/05/18 08:39:01;;;;;;;6.00;3.20;;;14.40;68.40;;;;;;5036408;28;20057;-61
2023/05/18 08:41:53;;;;;;;6.97;3.28;;;14.50;68.20;;;;;;5034403;28;20040;-62
2023/05/18 08:44:27;;;;;;;6.88;2.90;;;14.50;67.80;;;;;;5030565;28;20051;-62
2023/05/18 08:46:54;;;;;;;6.32;2.95;;;14.70;67.00;;;;;;5034713;28;20033;-62
2023/05/18 08:49:20;;;;;;;5.63;2.75;;;14.70;67.40;;;;;;5035931;28;20025;-61
2023/05/18 08:51:53;;;;;;;10.43;3.20;;;14.80;67.10;;;;;;5035960;28;20045;-62
2023/05/18 08:54:20;;;;;;;5.15;2.92;;;14.90;66.20;;;;;;5034726;28;20121;-62
2023/05/18 08:56:47;;;;;;;4.22;2.72;;;15.00;66.10;;;;;;5034316;28;20048;-62
2023/05/18 08:59:17;;;;;;;3.35;2.50;;;15.00;65.50;;;;;;5035208;28;20039;-62
2023/05/18 09:01:43;;;;;;;6.85;2.80;;;15.10;66.00;;;;;;5036739;28;20037;-62
2023/05/18 09:04:09;;;;;;;6.28;2.70;;;15.20;65.00;;;;;;5035528;28;20404;-63
2023/05/18 09:06:35;;;;;;;4.15;2.60;;;15.30;64.70;;;;;;5035837;28;20037;-62
2023/05/18 09:09:05;;;;;;;6.50;2.88;;;15.40;64.70;;;;;;5035599;28;20516;-61
2023/05/18 09:11:32;;;;;;;5.32;2.70;;;15.50;64.20;;;;;;5033513;28;20116;-62
2023/05/18 09:13:59;;;;;;;6.05;2.30;;;15.50;64.00;;;;;;5034882;28;20487;-62
2023/05/18 09:16:25;;;;;;;5.55;2.60;;;15.60;63.80;;;;;;5036035;28;20122;-61
2023/05/18 09:18:51;;;;;;;5.90;2.90;;;15.70;63.50;;;;;;5035170;28;20117;-60
2023/05/18 09:21:16;;;;;;;5.22;2.45;;;15.70;63.40;;;;;;5036838;28;20037;-62
2023/05/18 09:23:43;;;;;;;5.22;2.60;;;15.80;62.90;;;;;;5034065;28;20033;-61
2023/05/18 09:26:10;;;;;;;6.88;2.63;;;15.90;62.80;;;;;;5037853;28;20047;-61
2023/05/18 09:28:37;;;;;;;6.45;2.80;;;15.90;62.30;;;;;;5033458;28;20083;-62
2023/05/18 09:31:07;;;;;;;3.38;2.53;;;16.00;62.40;;;;;;5036516;28;20033;-62
2023/05/18 09:33:38;;;;;;;7.97;2.70;;;16.00;61.80;;;;;;5037783;28;20165;-61
2023/05/18 09:36:08;;;;;;;7.53;2.42;;;16.00;62.00;;;;;;5037293;28;20485;-61
2023/05/18 09:38:44;;;;;;;5.05;2.47;;;16.10;62.30;;;;;;5037286;28;20064;-62
2023/05/18 09:41:17;;;;;;;7.00;2.30;;;16.20;61.90;;;;;;5040851;28;20029;-61
2023/05/18 09:43:45;;;;;;;4.82;2.13;;;16.30;62.40;;;;;;5038783;28;20086;-61
2023/05/18 09:46:11;;;;;;;4.25;2.58;;;16.40;62.20;;;;;;5039881;28;20033;-62
2023/05/18 09:48:42;;;;;;;6.13;2.40;;;16.50;61.50;;;;;;5038412;28;20475;-61
2023/05/18 09:51:10;;;;;;;4.00;2.30;;;16.60;60.50;;;;;;5037378;28;20079;-62
2023/05/18 09:53:36;;;;;;;4.70;2.45;;;16.70;60.50;;;;;;5039954;28;20136;-62
2023/05/18 09:56:05;;;;;;;13.20;2.75;;;16.70;60.50;;;;;;5039198;28;20121;-61
2023/05/18 09:58:32;;;;;;;4.40;2.25;;;16.80;59.90;;;;;;5039040;28;20111;-62
2023/05/18 10:01:01;;;;;;;5.07;2.60;;;16.80;59.60;;;;;;5039719;28;20116;-60
2023/05/18 10:03:36;;;;;;;5.82;2.38;;;16.80;59.40;;;;;;5039728;28;20042;-62
2023/05/18 10:06:05;;;;;;;5.57;2.50;;;16.80;58.80;;;;;;5040040;28;20036;-61
2023/05/18 10:08:31;;;;;;;5.38;2.22;;;16.80;59.80;;;;;;5037983;28;20440;-62
2023/05/18 10:10:57;;;;;;;5.07;2.35;;;16.80;59.90;;;;;;5037917;28;20049;-61
2023/05/18 10:13:25;;;;;;;3.30;2.05;;;16.80;59.30;;;;;;5038476;28;20162;-61
2023/05/18 10:15:57;;;;;;;4.88;2.20;;;16.80;59.20;;;;;;5038981;28;20514;-61
2023/05/18 10:18:25;;;;;;;5.32;2.42;;;16.90;59.00;;;;;;5039164;28;20066;-62
2023/05/18 10:20:56;;;;;;;4.25;2.35;;;16.90;59.30;;;;;;5037349;28;20493;-61
2023/05/18 10:23:23;;;;;;;6.10;2.53;;;17.00;59.00;;;;;;5038350;28;20502;-62
2023/05/18 10:25:50;;;;;;;4.22;2.33;;;17.00;59.30;;;;;;5039372;28;20040;-61
2023/05/18 10:28:24;;;;;;;5.28;2.20;;;17.10;59.00;;;;;;5037840;28;20128;-62
2023/05/18 10:30:52;;;;;;;2.72;2.05;;;17.10;58.80;;;;;;5037275;28;20509;-60
2023/05/18 10:33:19;;;;;;;4.47;2.20;;;17.20;58.80;;;;;;5039634;28;20040;-62
2023/05/18 10:35:48;;;;;;;5.32;2.20;;;17.20;58.20;;;;;;5038474;28;20044;-62
2023/05/18 10:38:19;;;;;;;6.72;2.22;;;17.20;58.50;;;;;;5038051;28;20033;-61
2023/05/18 10:40:47;;;;;;;3.53;2.45;;;17.30;58.20;;;;;;5038052;28;20188;-62
2023/05/18 10:43:18;;;;;;;5.28;2.20;;;17.20;58.30;;;;;;5038744;28;20033;-61
2023/05/18 10:46:00;;;;;;;5.57;2.40;;;17.30;58.00;;;;;;5039092;28;20049;-62
2023/05/18 10:48:28;;;;;;;4.07;2.22;;;17.20;57.50;;;;;;5037326;28;20543;-62
2023/05/18 10:50:55;;;;;;;5.55;2.13;;;17.20;58.00;;;;;;5037658;28;20041;-62
2023/05/18 10:53:25;;;;;;;3.90;2.00;;;17.30;58.00;;;;;;5037217;28;20493;-61
2023/05/18 10:55:51;;;;;;;4.28;2.05;;;17.30;57.90;;;;;;5037618;28;20037;-61
2023/05/18 10:58:20;;;;;;;2.80;1.80;;;17.30;58.10;;;;;;5039635;28;20513;-61
2023/05/18 11:00:56;;;;;;;3.90;1.73;;;17.40;58.20;;;;;;5038658;28;20037;-60
2023/05/18 11:03:24;;;;;;;3.83;1.90;;;17.40;57.70;;;;;;5037420;28;20044;-61
2023/05/18 11:06:03;;;;;;;3.38;1.77;;;17.50;57.80;;;;;;5034777;28;20563;-62
2023/05/18 11:08:28;;;;;;;4.15;1.77;;;17.60;57.40;;;;;;5037785;28;20586;-62
2023/05/18 11:11:06;;;;;;;3.78;2.00;;;17.60;57.20;;;;;;5036045;28;20036;-62
2023/05/18 11:13:33;;;;;;;4.40;2.00;;;17.70;56.70;;;;;;5038594;28;20543;-61
2023/05/18 11:15:59;;;;;;;3.97;1.70;;;17.70;57.20;;;;;;5045089;28;20069;-61
2023/05/18 11:18:38;;;;;;;6.28;2.03;;;17.80;57.10;;;;;;5037480;28;20699;-62
2023/05/18 11:21:22;;;;;;;3.75;1.90;;;17.70;56.40;;;;;;5036060;28;20341;-62
2023/05/18 11:24:16;;;;;;;4.57;2.10;;;17.80;56.20;;;;;;5037215;28;20033;-61
2023/05/18 11:26:44;;;;;;;3.30;1.70;;;17.90;56.00;;;;;;5035985;28;20284;-62
2023/05/18 11:29:19;;;;;;;3.78;1.70;;;17.90;56.40;;;;;;5037790;28;20032;-61
2023/05/18 11:31:55;;;;;;;7.28;2.15;;;17.90;55.70;;;;;;5037277;28;20136;-62
2023/05/18 11:34:43;;;;;;;4.90;1.40;;;17.90;55.40;;;;;;5038053;28;20129;-62
2023/05/18 11:37:13;;;;;;;6.32;2.10;;;17.90;55.20;;;;;;5036574;28;20463;-62
2023/05/18 11:39:39;;;;;;;4.78;1.88;;;17.90;56.00;;;;;;5038261;28;20040;-62
2023/05/18 11:42:10;;;;;;;3.72;2.00;;;17.90;55.90;;;;;;5037828;28;20033;-62
2023/05/18 11:44:38;;;;;;;2.17;1.67;;;17.90;55.20;;;;;;5036897;28;20037;-62
2023/05/18 11:47:07;;;;;;;4.25;1.75;;;17.80;55.40;;;;;;5037341;28;20040;-61
2023/05/18 11:49:46;;;;;;;4.15;1.95;;;17.80;55.00;;;;;;5038323;28;20033;-60
2023/05/18 11:52:22;;;;;;;5.57;1.60;;;17.70;54.50;;;;;;5035772;28;20079;-62
2023/05/18 11:55:00;;;;;;;3.60;1.80;;;17.60;54.70;;;;;;5036243;28;20064;-59
2023/05/18 11:57:39;;;;;;;4.13;2.17;;;17.60;54.60;;;;;;5036657;28;20044;-61
2023/05/18 12:00:06;;;;;;;5.93;2.22;;;17.50;55.10;;;;;;5036239;28;20032;-62
2023/05/18 12:02:33;;;;;;;3.40;1.60;;;17.50;55.70;;;;;;5049835;28;20117;-62
2023/05/18 12:05:00;;;;;;;3.88;1.80;;;17.40;55.70;;;;;;5036709;28;20029;-62
2023/05/18 12:07:28;;;;;;;4.32;1.90;;;17.40;55.70;;;;;;5037748;28;20036;-61
2023/05/18 12:10:03;;;;;;;3.38;2.10;;;17.30;55.50;;;;;;5034774;28;20034;-61
2023/05/18 12:12:29;;;;;;;4.55;2.10;;;17.30;54.90;;;;;;5036058;28;20033;-61
2023/05/18 12:15:00;;;;;;;4.88;1.77;;;17.20;55.50;;;;;;5035500;28;20056;-62
2023/05/18 12:17:52;;;;;;;7.95;2.38;;;17.20;55.20;;;;;;5036265;28;20033;-61
2023/05/18 12:20:23;;;;;;;4.57;2.22;;;17.10;55.20;;;;;;5034784;28;20136;-60
2023/05/18 12:22:52;;;;;;;6.20;2.15;;;17.10;56.00;;;;;;5037037;28;21726;-62
2023/05/18 12:25:20;;;;;;;3.63;2.08;;;17.10;56.10;;;;;;5038331;28;20037;-62
2023/05/18 12:27:47;;;;;;;6.28;2.42;;;17.10;56.20;;;;;;5035106;28;20397;-60
2023/05/18 12:30:19;;;;;;;7.95;2.58;;;17.10;55.90;;;;;;5036262;28;20049;-61
2023/05/18 12:32:55;;;;;;;3.60;2.00;;;17.10;55.60;;;;;;5034562;28;20037;-62
2023/05/18 12:35:28;;;;;;;3.65;2.20;;;17.00;56.00;;;;;;5036224;28;20041;-62
2023/05/18 12:37:56;;;;;;;5.30;2.05;;;17.00;55.90;;;;;;5036562;28;20025;-60
2023/05/18 12:40:22;;;;;;;6.53;2.35;;;17.00;56.10;;;;;;5035866;28;20048;-60
2023/05/18 12:42:52;;;;;;;4.30;2.00;;;16.90;56.10;;;;;;5035506;28;20036;-62
2023/05/18 12:45:17;;;;;;;3.58;2.15;;;16.90;55.80;;;;;;5036344;28;20029;-61
2023/05/18 12:47:43;;;;;;;3.60;1.77;;;16.80;55.60;;;;;;5036115;28;20448;-61
2023/05/18 12:50:10;;;;;;;4.85;1.95;;;16.80;56.10;;;;;;5036806;28;20099;-61
2023/05/18 12:52:36;;;;;;;5.53;2.00;;;16.80;56.10;;;;;;5036241;28;20040;-62
2023/05/18 12:55:02;;;;;;;5.28;2.10;;;16.80;56.30;;;;;;5035300;28;20483;-62